createdAt,value
2023-04-20T00:00:08.925Z,986.00
2023-04-20T00:01:07.870Z,985.00
2023-04-20T00:02:08.999Z,982.00
2023-04-20T00:03:08.149Z,979.00
2023-04-20T00:04:09.004Z,981.00
2023-04-20T00:05:09.085Z,979.00
2023-04-20T00:06:09.060Z,980.00
2023-04-20T00:07:09.096Z,981.00
2023-04-20T00:08:08.103Z,982.00
2023-04-20T00:09:09.127Z,983.00
2023-04-20T00:10:08.152Z,981.00
2023-04-20T00:11:09.170Z,979.00
2023-04-20T00:12:09.206Z,977.00
2023-04-20T00:13:09.276Z,977.00
2023-04-20T00:14:08.287Z,977.00
2023-04-20T00:15:09.301Z,981.00
2023-04-20T00:16:09.338Z,980.00
2023-04-20T00:17:09.427Z,982.00
2023-04-20T00:18:09.388Z,984.00
2023-04-20T00:19:09.449Z,981.00
2023-04-20T00:20:08.487Z,983.00
2023-04-20T00:21:09.511Z,978.00
2023-04-20T00:22:09.564Z,979.00
2023-04-20T00:23:09.602Z,984.00
2023-04-20T00:24:08.636Z,984.00
2023-04-20T00:25:08.691Z,981.00
2023-04-20T00:26:09.742Z,979.00
2023-04-20T00:27:09.767Z,977.00
2023-04-20T00:28:09.839Z,978.00
2023-04-20T00:29:09.907Z,980.00
2023-04-20T00:30:09.870Z,982.00
2023-04-20T00:31:08.954Z,982.00
2023-04-20T00:32:08.977Z,981.00
2023-04-20T00:33:10.010Z,980.00
2023-04-20T00:34:10.061Z,980.00
2023-04-20T00:35:10.087Z,982.00
2023-04-20T00:36:10.596Z,980.00
2023-04-20T00:37:09.511Z,980.00
2023-04-20T00:38:10.188Z,980.00
2023-04-20T00:39:10.294Z,982.00
2023-04-20T00:40:10.298Z,982.00
2023-04-20T00:41:10.327Z,985.00
2023-04-20T00:42:09.382Z,986.00
2023-04-20T00:43:10.408Z,983.00
2023-04-20T00:44:09.529Z,983.00
2023-04-20T00:45:10.584Z,981.00
2023-04-20T00:46:09.562Z,982.00
2023-04-20T00:47:09.570Z,981.00
2023-04-20T00:48:09.611Z,977.00
2023-04-20T00:49:09.654Z,979.00
2023-04-20T00:50:09.693Z,979.00
2023-04-20T00:51:10.748Z,979.00
2023-04-20T00:52:10.849Z,977.00
2023-04-20T00:53:10.807Z,977.00
2023-04-20T00:54:09.834Z,978.00
2023-04-20T00:55:09.881Z,980.00
2023-04-20T00:56:10.914Z,981.00
2023-04-20T00:57:10.974Z,982.00
2023-04-20T00:58:11.024Z,980.00
2023-04-20T00:59:10.048Z,978.00
2023-04-20T01:00:10.095Z,978.00
2023-04-20T01:01:11.474Z,980.00
2023-04-20T01:02:11.229Z,982.00
2023-04-20T01:03:11.379Z,983.00
2023-04-20T01:04:11.377Z,983.00
2023-04-20T01:05:10.333Z,977.00
2023-04-20T01:06:11.347Z,977.00
2023-04-20T01:07:10.403Z,977.00
2023-04-20T01:08:11.453Z,974.00
2023-04-20T01:09:11.490Z,975.00
2023-04-20T01:10:11.540Z,974.00
2023-04-20T01:11:11.594Z,973.00
2023-04-20T01:12:11.682Z,972.00
2023-04-20T01:13:11.699Z,971.00
2023-04-20T01:14:10.732Z,972.00
2023-04-20T01:15:11.796Z,974.00
2023-04-20T01:16:10.820Z,978.00
2023-04-20T01:17:11.882Z,978.00
2023-04-20T01:18:10.899Z,973.00
2023-04-20T01:19:11.969Z,972.00
2023-04-20T01:20:11.019Z,970.00
2023-04-20T01:21:12.048Z,971.00
2023-04-20T01:22:12.112Z,971.00
2023-04-20T01:23:11.160Z,972.00
2023-04-20T01:24:12.183Z,975.00
2023-04-20T01:25:11.262Z,972.00
2023-04-20T01:26:12.290Z,977.00
2023-04-20T01:27:12.329Z,976.00
2023-04-20T01:28:12.380Z,976.00
2023-04-20T01:29:12.423Z,978.00
2023-04-20T01:30:12.464Z,979.00
2023-04-20T01:31:12.536Z,978.00
2023-04-20T01:32:12.572Z,976.00
2023-04-20T01:33:12.719Z,972.00
2023-04-20T01:34:12.648Z,973.00
2023-04-20T01:35:12.725Z,978.00
2023-04-20T01:36:12.733Z,981.00
2023-04-20T01:37:11.771Z,978.00
2023-04-20T01:38:11.820Z,979.00
2023-04-20T01:39:12.875Z,979.00
2023-04-20T01:40:12.909Z,979.00
2023-04-20T01:41:12.956Z,980.00
2023-04-20T01:42:12.015Z,980.00
2023-04-20T01:43:13.046Z,984.00
2023-04-20T01:44:13.109Z,979.00
2023-04-20T01:45:13.141Z,977.00
2023-04-20T01:46:13.211Z,982.00
2023-04-20T01:47:12.231Z,979.00
2023-04-20T01:48:13.286Z,977.00
2023-04-20T01:49:12.342Z,977.00
2023-04-20T01:50:13.396Z,981.00
2023-04-20T01:51:13.415Z,981.00
2023-04-20T01:52:12.494Z,984.00
2023-04-20T01:53:13.517Z,986.00
2023-04-20T01:54:13.575Z,983.00
2023-04-20T01:55:12.606Z,983.00
2023-04-20T01:56:13.673Z,984.00
2023-04-20T01:57:13.720Z,983.00
2023-04-20T01:58:12.772Z,979.00
2023-04-20T01:59:13.848Z,978.00
2023-04-20T02:00:13.908Z,976.00
2023-04-20T02:01:14.145Z,972.00
2023-04-20T02:02:14.049Z,972.00
2023-04-20T02:03:14.245Z,972.00
2023-04-20T02:04:13.131Z,974.00
2023-04-20T02:05:14.187Z,972.00
2023-04-20T02:06:13.208Z,972.00
2023-04-20T02:07:13.283Z,971.00
2023-04-20T02:08:14.323Z,970.00
2023-04-20T02:09:14.379Z,972.00
2023-04-20T02:10:13.460Z,971.00
2023-04-20T02:11:14.474Z,973.00
2023-04-20T02:12:14.501Z,972.00
2023-04-20T02:13:13.557Z,971.00
2023-04-20T02:14:14.591Z,971.00
2023-04-20T02:15:14.664Z,973.00
2023-04-20T02:16:13.681Z,971.00
2023-04-20T02:17:13.749Z,972.00
2023-04-20T02:18:13.718Z,973.00
2023-04-20T02:19:14.894Z,972.00
2023-04-20T02:20:14.849Z,974.00
2023-04-20T02:21:15.699Z,976.00
2023-04-20T02:22:14.843Z,977.00
2023-04-20T02:23:14.855Z,978.00
2023-04-20T02:24:14.946Z,975.00
2023-04-20T02:25:14.933Z,977.00
2023-04-20T02:26:13.945Z,975.00
2023-04-20T02:27:14.973Z,974.00
2023-04-20T02:28:13.974Z,973.00
2023-04-20T02:29:14.297Z,973.00
2023-04-20T02:30:15.052Z,973.00
2023-04-20T02:31:15.051Z,975.00
2023-04-20T02:32:15.022Z,974.00
2023-04-20T02:33:15.035Z,971.00
2023-04-20T02:34:15.015Z,972.00
2023-04-20T02:35:15.051Z,973.00
2023-04-20T02:36:15.028Z,972.00
2023-04-20T02:37:15.037Z,971.00
2023-04-20T02:38:15.031Z,973.00
2023-04-20T02:39:14.040Z,970.00
2023-04-20T02:40:15.069Z,967.00
2023-04-20T02:41:15.081Z,965.00
2023-04-20T02:42:15.159Z,963.00
2023-04-20T02:43:15.202Z,966.00
2023-04-20T02:44:14.262Z,968.00
2023-04-20T02:45:15.335Z,970.00
2023-04-20T02:46:15.427Z,973.00
2023-04-20T02:47:14.442Z,972.00
2023-04-20T02:48:15.492Z,974.00
2023-04-20T02:49:14.561Z,975.00
2023-04-20T02:50:14.622Z,973.00
2023-04-20T02:51:14.699Z,970.00
2023-04-20T02:52:15.746Z,970.00
2023-04-20T02:53:15.837Z,968.00
2023-04-20T02:54:15.860Z,968.00
2023-04-20T02:55:15.921Z,967.00
2023-04-20T02:56:15.995Z,965.00
2023-04-20T02:57:16.034Z,966.00
2023-04-20T02:58:16.108Z,963.00
2023-04-20T02:59:15.309Z,964.00
2023-04-20T03:00:16.192Z,965.00
2023-04-20T03:01:16.256Z,964.00
2023-04-20T03:02:15.334Z,966.00
2023-04-20T03:03:16.535Z,963.00
2023-04-20T03:04:16.579Z,967.00
2023-04-20T03:05:15.442Z,970.00
2023-04-20T03:06:15.490Z,968.00
2023-04-20T03:07:16.817Z,970.00
2023-04-20T03:08:16.554Z,968.00
2023-04-20T03:09:15.787Z,968.00
2023-04-20T03:10:17.121Z,968.00
2023-04-20T03:11:16.730Z,967.00
2023-04-20T03:12:16.769Z,967.00
2023-04-20T03:13:16.802Z,969.00
2023-04-20T03:14:16.834Z,967.00
2023-04-20T03:15:15.882Z,966.00
2023-04-20T03:16:16.957Z,966.00
2023-04-20T03:17:15.989Z,964.00
2023-04-20T03:18:17.226Z,964.00
2023-04-20T03:19:17.376Z,962.00
2023-04-20T03:20:16.136Z,963.00
2023-04-20T03:21:17.182Z,960.00
2023-04-20T03:22:16.218Z,965.00
2023-04-20T03:23:17.256Z,964.00
2023-04-20T03:24:17.342Z,965.00
2023-04-20T03:25:16.352Z,968.00
2023-04-20T03:26:17.391Z,970.00
2023-04-20T03:27:17.431Z,972.00
2023-04-20T03:28:17.485Z,973.00
2023-04-20T03:29:17.995Z,970.00
2023-04-20T03:30:17.548Z,971.00
2023-04-20T03:31:17.681Z,970.00
2023-04-20T03:32:16.638Z,970.00
2023-04-20T03:33:17.698Z,966.00
2023-04-20T03:34:17.741Z,964.00
2023-04-20T03:35:17.819Z,962.00
2023-04-20T03:36:16.845Z,963.00
2023-04-20T03:37:17.862Z,958.00
2023-04-20T03:38:17.899Z,958.00
2023-04-20T03:39:17.338Z,958.00
2023-04-20T03:40:18.345Z,957.00
2023-04-20T03:41:18.049Z,960.00
2023-04-20T03:42:17.080Z,961.00
2023-04-20T03:43:17.128Z,960.00
2023-04-20T03:44:18.181Z,963.00
2023-04-20T03:45:17.208Z,969.00
2023-04-20T03:46:18.378Z,969.00
2023-04-20T03:47:17.281Z,965.00
2023-04-20T03:48:18.316Z,962.00
2023-04-20T03:49:17.802Z,961.00
2023-04-20T03:50:17.389Z,961.00
2023-04-20T03:51:17.425Z,964.00
2023-04-20T03:52:17.634Z,962.00
2023-04-20T03:53:17.488Z,963.00
2023-04-20T03:54:17.525Z,968.00
2023-04-20T03:55:17.580Z,966.00
2023-04-20T03:56:17.632Z,967.00
2023-04-20T03:57:17.635Z,968.00
2023-04-20T03:58:18.656Z,964.00
2023-04-20T03:59:18.020Z,963.00
2023-04-20T04:00:18.736Z,964.00
2023-04-20T04:01:17.754Z,962.00
2023-04-20T04:02:17.843Z,961.00
2023-04-20T04:03:18.994Z,957.00
2023-04-20T04:04:18.277Z,954.00
2023-04-20T04:05:18.987Z,954.00
2023-04-20T04:06:17.918Z,957.00
2023-04-20T04:07:18.956Z,957.00
2023-04-20T04:08:19.003Z,954.00
2023-04-20T04:09:18.244Z,955.00
2023-04-20T04:10:19.044Z,955.00
2023-04-20T04:11:19.090Z,957.00
2023-04-20T04:12:19.158Z,956.00
2023-04-20T04:13:19.147Z,959.00
2023-04-20T04:14:19.182Z,959.00
2023-04-20T04:15:19.215Z,961.00
2023-04-20T04:16:18.259Z,961.00
2023-04-20T04:17:18.285Z,957.00
2023-04-20T04:18:19.325Z,956.00
2023-04-20T04:19:19.557Z,958.00
2023-04-20T04:20:18.390Z,958.00
2023-04-20T04:21:19.453Z,961.00
2023-04-20T04:22:19.500Z,963.00
2023-04-20T04:23:18.542Z,964.00
2023-04-20T04:24:18.586Z,967.00
2023-04-20T04:25:19.647Z,964.00
2023-04-20T04:26:19.705Z,964.00
2023-04-20T04:27:19.754Z,962.00
2023-04-20T04:28:18.807Z,960.00
2023-04-20T04:29:19.985Z,958.00
2023-04-20T04:30:19.896Z,958.00
2023-04-20T04:31:18.969Z,959.00
2023-04-20T04:32:19.086Z,962.00
2023-04-20T04:33:20.050Z,964.00
2023-04-20T04:34:20.100Z,963.00
2023-04-20T04:35:20.149Z,968.00
2023-04-20T04:36:19.201Z,966.00
2023-04-20T04:37:19.227Z,966.00
2023-04-20T04:38:19.300Z,969.00
2023-04-20T04:39:20.363Z,967.00
2023-04-20T04:40:19.389Z,967.00
2023-04-20T04:41:20.456Z,966.00
2023-04-20T04:42:20.514Z,965.00
2023-04-20T04:43:19.580Z,961.00
2023-04-20T04:44:20.791Z,959.00
2023-04-20T04:45:20.691Z,958.00
2023-04-20T04:46:20.728Z,956.00
2023-04-20T04:47:19.776Z,957.00
2023-04-20T04:48:19.804Z,959.00
2023-04-20T04:49:21.087Z,959.00
2023-04-20T04:50:20.930Z,960.00
2023-04-20T04:51:20.985Z,958.00
2023-04-20T04:52:21.037Z,960.00
2023-04-20T04:53:21.083Z,962.00
2023-04-20T04:54:20.137Z,964.00
2023-04-20T04:55:20.184Z,963.00
2023-04-20T04:56:21.267Z,963.00
2023-04-20T04:57:20.293Z,963.00
2023-04-20T04:58:20.328Z,962.00
2023-04-20T04:59:21.387Z,961.00
2023-04-20T05:00:21.471Z,962.00
2023-04-20T05:01:21.838Z,960.00
2023-04-20T05:02:20.755Z,959.00
2023-04-20T05:03:21.688Z,958.00
2023-04-20T05:04:21.818Z,961.00
2023-04-20T05:05:20.646Z,963.00
2023-04-20T05:06:20.763Z,968.00
2023-04-20T05:07:21.776Z,970.00
2023-04-20T05:08:20.850Z,968.00
2023-04-20T05:09:20.990Z,965.00
2023-04-20T05:10:21.896Z,963.00
2023-04-20T05:11:21.278Z,964.00
2023-04-20T05:12:20.994Z,964.00
2023-04-20T05:13:22.030Z,963.00
2023-04-20T05:14:21.090Z,965.00
2023-04-20T05:15:21.297Z,968.00
2023-04-20T05:16:21.381Z,969.00
2023-04-20T05:17:22.336Z,969.00
2023-04-20T05:18:22.255Z,969.00
2023-04-20T05:19:22.333Z,968.00
2023-04-20T05:20:22.361Z,970.00
2023-04-20T05:21:22.358Z,970.00
2023-04-20T05:22:22.407Z,975.00
2023-04-20T05:23:21.453Z,975.00
2023-04-20T05:24:21.495Z,978.00
2023-04-20T05:25:22.557Z,978.00
2023-04-20T05:26:22.579Z,981.00
2023-04-20T05:27:22.596Z,982.00
2023-04-20T05:28:22.632Z,987.00
2023-04-20T05:29:22.630Z,989.00
2023-04-20T05:30:22.258Z,989.00
2023-04-20T05:31:22.736Z,995.00
2023-04-20T05:32:22.789Z,994.00
2023-04-20T05:33:21.751Z,1000.00
2023-04-20T05:34:21.842Z,1003.00
2023-04-20T05:35:22.841Z,1013.00
2023-04-20T05:36:22.855Z,1022.00
2023-04-20T05:37:21.854Z,1030.00
2023-04-20T05:38:21.858Z,1036.00
2023-04-20T05:39:21.862Z,1044.00
2023-04-20T05:40:21.895Z,1047.00
2023-04-20T05:41:22.903Z,1052.00
2023-04-20T05:42:22.024Z,1064.00
2023-04-20T05:43:22.944Z,1073.00
2023-04-20T05:44:21.967Z,1086.00
2023-04-20T05:45:21.937Z,1110.00
2023-04-20T05:46:22.049Z,1131.00
2023-04-20T05:47:21.959Z,1134.00
2023-04-20T05:48:23.071Z,1145.00
2023-04-20T05:49:21.968Z,1176.00
2023-04-20T05:50:22.963Z,1202.00
2023-04-20T05:51:22.991Z,1219.00
2023-04-20T05:52:22.989Z,1222.00
2023-04-20T05:53:22.996Z,1241.00
2023-04-20T05:54:22.996Z,1266.00
2023-04-20T05:55:23.262Z,1283.00
2023-04-20T05:56:23.130Z,1289.00
2023-04-20T05:57:23.121Z,1291.00
2023-04-20T05:58:22.110Z,1311.00
2023-04-20T05:59:23.105Z,1338.00
2023-04-20T06:00:25.187Z,1354.00
2023-04-20T06:01:23.334Z,1381.00
2023-04-20T06:02:22.376Z,1407.00
2023-04-20T06:03:22.282Z,1431.00
2023-04-20T06:04:23.415Z,1446.00
2023-04-20T06:05:23.098Z,1471.00
2023-04-20T06:06:23.061Z,1551.00
2023-04-20T06:07:23.057Z,1550.00
2023-04-20T06:08:23.058Z,1543.00
2023-04-20T06:09:22.012Z,1526.00
2023-04-20T06:10:23.016Z,1458.00
2023-04-20T06:11:23.008Z,1458.00
2023-04-20T06:12:21.999Z,1440.00
2023-04-20T06:13:23.186Z,1431.00
2023-04-20T06:14:22.978Z,1414.00
2023-04-20T06:15:22.003Z,1394.00
2023-04-20T06:16:23.011Z,1377.00
2023-04-20T06:17:23.055Z,1354.00
2023-04-20T06:18:22.901Z,1339.00
2023-04-20T06:19:29.016Z,1238.00
2023-04-20T06:20:22.957Z,1237.00
2023-04-20T06:21:22.959Z,1245.00
2023-04-20T06:22:22.937Z,1241.00
2023-04-20T06:23:22.915Z,1235.00
2023-04-20T06:24:21.915Z,1212.00
2023-04-20T06:25:22.929Z,1189.00
2023-04-20T06:26:22.900Z,1175.00
2023-04-20T06:27:22.893Z,1164.00
2023-04-20T06:28:21.891Z,1155.00
2023-04-20T06:29:22.896Z,1154.00
2023-04-20T06:31:15.902Z,1145.00
2023-04-20T06:32:16.812Z,1158.00
2023-04-20T06:33:16.811Z,1179.00
2023-04-20T06:34:15.778Z,1194.00
2023-04-20T06:35:16.797Z,1208.00
2023-04-20T06:36:15.803Z,1223.00
2023-04-20T06:37:15.842Z,1239.00
2023-04-20T06:38:16.980Z,1261.00
2023-04-20T06:39:17.153Z,1281.00
2023-04-20T06:40:16.977Z,1295.00
2023-04-20T06:41:16.041Z,1322.00
2023-04-20T06:42:17.159Z,1348.00
2023-04-20T06:43:16.091Z,1364.00
2023-04-20T06:44:17.108Z,1398.00
2023-04-20T06:45:16.174Z,1433.00
2023-04-20T06:46:17.245Z,1452.00
2023-04-20T06:47:17.249Z,1465.00
2023-04-20T06:48:30.967Z,1479.00
2023-04-20T06:49:17.544Z,1495.00
2023-04-20T06:50:17.231Z,1535.00
2023-04-20T06:51:17.249Z,1557.00
2023-04-20T06:52:17.495Z,1574.00
2023-04-20T06:53:16.206Z,1591.00
2023-04-20T06:54:17.183Z,1635.00
2023-04-20T06:55:16.164Z,1645.00
2023-04-20T06:56:17.201Z,1688.00
2023-04-20T06:57:17.530Z,1732.00
2023-04-20T06:58:17.153Z,1752.00
2023-04-20T06:59:17.344Z,1775.00
2023-04-20T07:00:17.115Z,1808.00
2023-04-20T07:01:17.276Z,1841.00
2023-04-20T07:02:16.236Z,1869.00
2023-04-20T07:03:17.271Z,1893.00
2023-04-20T07:04:17.139Z,1916.00
2023-04-20T07:05:17.135Z,1959.00
2023-04-20T07:06:17.104Z,1979.00
2023-04-20T07:07:17.118Z,1998.00
2023-04-20T07:08:17.077Z,2013.00
2023-04-20T07:09:17.229Z,2035.00
2023-04-20T07:10:17.073Z,2058.00
2023-04-20T07:11:17.070Z,2076.00
2023-04-20T07:12:17.070Z,2091.00
2023-04-20T07:13:16.048Z,2110.00
2023-04-20T07:14:17.012Z,2134.00
2023-04-20T07:15:17.005Z,2161.00
2023-04-20T07:16:17.050Z,2178.00
2023-04-20T07:17:17.035Z,2199.00
2023-04-20T07:18:17.028Z,2216.00
2023-04-20T07:19:16.154Z,2233.00
2023-04-20T07:20:17.003Z,2252.00
2023-04-20T07:21:16.946Z,2268.00
2023-04-20T07:22:16.952Z,2294.00
2023-04-20T07:23:16.993Z,2313.00
2023-04-20T07:24:16.967Z,2336.00
2023-04-20T07:25:15.925Z,2362.00
2023-04-20T07:26:17.485Z,2380.00
2023-04-20T07:27:15.941Z,2399.00
2023-04-20T07:28:15.931Z,2415.00
2023-04-20T07:29:16.195Z,2431.00
2023-04-20T07:30:15.975Z,2449.00
2023-04-20T07:31:16.938Z,2466.00
2023-04-20T07:32:17.005Z,2487.00
2023-04-20T07:33:16.887Z,2501.00
2023-04-20T07:34:17.069Z,2525.00
2023-04-20T07:35:16.876Z,2556.00
2023-04-20T07:36:16.845Z,2572.00
2023-04-20T07:37:16.845Z,2595.00
2023-04-20T07:38:15.849Z,2629.00
2023-04-20T07:39:16.114Z,2642.00
2023-04-20T07:40:16.866Z,2664.00
2023-04-20T07:41:16.841Z,2692.00
2023-04-20T07:42:16.814Z,2711.00
2023-04-20T07:43:16.791Z,2745.00
2023-04-20T07:44:16.856Z,2764.00
2023-04-20T07:45:15.786Z,2769.00
2023-04-20T07:46:16.895Z,2842.00
2023-04-20T07:47:15.996Z,2840.00
2023-04-20T07:48:15.895Z,2847.00
2023-04-20T07:49:16.081Z,2839.00
2023-04-20T07:50:16.822Z,2841.00
2023-04-20T07:51:16.853Z,2828.00
2023-04-20T07:52:17.566Z,2817.00
2023-04-20T07:53:16.884Z,2814.00
2023-04-20T07:54:16.928Z,2815.00
2023-04-20T07:55:16.990Z,2809.00
2023-04-20T07:56:16.961Z,2804.00
2023-04-20T07:57:16.971Z,2795.00
2023-04-20T07:58:17.044Z,2789.00
2023-04-20T07:59:16.507Z,2789.00
2023-04-20T08:00:17.101Z,2779.00
2023-04-20T08:01:16.068Z,2771.00
2023-04-20T08:02:17.137Z,2766.00
2023-04-20T08:03:17.418Z,2758.00
2023-04-20T08:04:16.283Z,2746.00
2023-04-20T08:05:17.395Z,2741.00
2023-04-20T08:06:17.288Z,2732.00
2023-04-20T08:07:16.208Z,2724.00
2023-04-20T08:08:16.220Z,2723.00
2023-04-20T08:09:17.381Z,2717.00
2023-04-20T08:10:17.275Z,2714.00
2023-04-20T08:11:17.298Z,2711.00
2023-04-20T08:12:16.338Z,2705.00
2023-04-20T08:13:17.333Z,2698.00
2023-04-20T08:14:17.525Z,2689.00
2023-04-20T08:15:17.412Z,2683.00
2023-04-20T08:16:16.509Z,2679.00
2023-04-20T08:17:16.432Z,2671.00
2023-04-20T08:18:16.483Z,2658.00
2023-04-20T08:19:16.519Z,2644.00
2023-04-20T08:20:17.519Z,2636.00
2023-04-20T08:21:16.544Z,2623.00
2023-04-20T08:22:16.635Z,2611.00
2023-04-20T08:23:16.650Z,2601.00
2023-04-20T08:24:17.935Z,2582.00
2023-04-20T08:25:16.722Z,2562.00
2023-04-20T08:26:17.832Z,2554.00
2023-04-20T08:27:17.813Z,2546.00
2023-04-20T08:28:32.437Z,2543.00
2023-04-20T08:29:17.845Z,2537.00
2023-04-20T08:30:17.828Z,2536.00
2023-04-20T08:31:17.858Z,2527.00
2023-04-20T08:32:16.796Z,2524.00
2023-04-20T08:33:17.830Z,2523.00
2023-04-20T08:34:17.817Z,2521.00
2023-04-20T08:35:17.770Z,2517.00
2023-04-20T08:36:17.755Z,2507.00
2023-04-20T08:37:17.822Z,2497.00
2023-04-20T08:38:20.739Z,2483.00
2023-04-20T08:39:17.748Z,2474.00
2023-04-20T08:40:16.745Z,2469.00
2023-04-20T08:41:17.762Z,2463.00
2023-04-20T08:42:18.001Z,2453.00
2023-04-20T08:43:16.839Z,2328.00
2023-04-20T08:44:17.850Z,2177.00
2023-04-20T08:45:17.702Z,1484.00
2023-04-20T08:46:17.726Z,1187.00
2023-04-20T08:47:17.705Z,881.00
2023-04-20T08:48:17.680Z,788.00
2023-04-20T08:49:16.688Z,677.00
2023-04-20T08:50:16.708Z,671.00
2023-04-20T08:51:17.676Z,660.00
2023-04-20T08:52:17.659Z,654.00
2023-04-20T08:53:17.662Z,629.00
2023-04-20T08:54:17.126Z,666.00
2023-04-20T08:55:16.837Z,705.00
2023-04-20T08:56:17.652Z,728.00
2023-04-20T08:57:18.010Z,733.00
2023-04-20T08:58:17.603Z,744.00
2023-04-20T08:59:17.623Z,759.00
2023-04-20T09:00:16.631Z,775.00
2023-04-20T09:01:20.013Z,803.00
2023-04-20T09:02:17.717Z,818.00
2023-04-20T09:03:17.894Z,822.00
2023-04-20T09:04:18.026Z,824.00
2023-04-20T09:05:17.589Z,825.00
2023-04-20T09:06:17.554Z,821.00
2023-04-20T09:07:17.546Z,827.00
2023-04-20T09:08:17.559Z,837.00
2023-04-20T09:09:17.582Z,828.00
2023-04-20T09:10:16.543Z,832.00
2023-04-20T09:11:16.513Z,835.00
2023-04-20T09:12:17.525Z,853.00
2023-04-20T09:13:17.530Z,879.00
2023-04-20T09:14:17.252Z,856.00
2023-04-20T09:15:17.516Z,863.00
2023-04-20T09:16:16.597Z,856.00
2023-04-20T09:17:17.632Z,863.00
2023-04-20T09:18:17.626Z,877.00
2023-04-20T09:19:17.671Z,865.00
2023-04-20T09:20:17.709Z,853.00
2023-04-20T09:21:17.788Z,844.00
2023-04-20T09:22:16.745Z,848.00
2023-04-20T09:23:17.801Z,845.00
2023-04-20T09:24:17.172Z,850.00
2023-04-20T09:25:16.806Z,844.00
2023-04-20T09:26:18.511Z,845.00
2023-04-20T09:27:17.823Z,845.00
2023-04-20T09:28:17.832Z,854.00
2023-04-20T09:29:16.819Z,855.00
2023-04-20T09:30:16.837Z,853.00
2023-04-20T09:31:17.934Z,847.00
2023-04-20T09:32:16.928Z,847.00
2023-04-20T09:33:17.872Z,847.00
2023-04-20T09:34:18.047Z,846.00
2023-04-20T09:35:16.897Z,847.00
2023-04-20T09:36:17.939Z,848.00
2023-04-20T09:37:17.997Z,852.00
2023-04-20T09:38:16.992Z,860.00
2023-04-20T09:39:17.984Z,859.00
2023-04-20T09:40:18.040Z,856.00
2023-04-20T09:41:18.038Z,860.00
2023-04-20T09:42:18.079Z,867.00
2023-04-20T09:43:18.082Z,872.00
2023-04-20T09:44:18.445Z,876.00
2023-04-20T09:45:17.141Z,887.00
2023-04-20T09:46:18.270Z,936.00
2023-04-20T09:47:18.836Z,937.00
2023-04-20T09:48:18.217Z,943.00
2023-04-20T09:49:18.316Z,992.00
2023-04-20T09:50:26.706Z,1005.00
2023-04-20T09:51:18.711Z,1027.00
2023-04-20T09:52:18.983Z,1067.00
2023-04-20T09:53:18.317Z,1087.00
2023-04-20T09:54:17.534Z,1103.00
2023-04-20T09:55:17.266Z,1175.00
2023-04-20T09:56:18.273Z,1189.00
2023-04-20T09:57:18.288Z,1198.00
2023-04-20T09:58:18.393Z,1260.00
2023-04-20T09:59:18.233Z,1253.00
2023-04-20T10:00:18.315Z,1286.00
2023-04-20T10:01:18.284Z,1303.00
2023-04-20T10:02:18.273Z,1335.00
2023-04-20T10:03:17.540Z,1352.00
2023-04-20T10:04:17.814Z,1360.00
2023-04-20T10:05:18.197Z,1380.00
2023-04-20T10:06:17.191Z,1390.00
2023-04-20T10:07:18.253Z,1406.00
2023-04-20T10:08:18.308Z,1452.00
2023-04-20T10:09:17.321Z,1472.00
2023-04-20T10:10:17.336Z,1484.00
2023-04-20T10:11:17.423Z,1498.00
2023-04-20T10:12:18.446Z,1505.00
2023-04-20T10:13:17.442Z,1556.00
2023-04-20T10:14:18.724Z,1590.00
2023-04-20T10:15:18.525Z,1604.00
2023-04-20T10:16:18.578Z,1612.00
2023-04-20T10:17:17.698Z,1625.00
2023-04-20T10:18:18.742Z,1634.00
2023-04-20T10:19:18.712Z,1651.00
2023-04-20T10:20:18.731Z,1715.00
2023-04-20T10:21:18.732Z,1761.00
2023-04-20T10:22:18.751Z,1766.00
2023-04-20T10:23:18.886Z,1784.00
2023-04-20T10:24:20.500Z,1811.00
2023-04-20T10:25:18.854Z,1830.00
2023-04-20T10:26:18.860Z,1851.00
2023-04-20T10:27:18.840Z,1877.00
2023-04-20T10:28:18.852Z,1893.00
2023-04-20T10:29:17.809Z,1907.00
2023-04-20T10:30:17.852Z,1924.00
2023-04-20T10:31:18.824Z,1982.00
2023-04-20T10:32:17.782Z,1982.00
2023-04-20T10:33:17.826Z,2004.00
2023-04-20T10:34:18.831Z,2022.00
2023-04-20T10:35:18.870Z,2092.00
2023-04-20T10:36:17.776Z,2129.00
2023-04-20T10:37:17.768Z,2137.00
2023-04-20T10:38:19.091Z,2144.00
2023-04-20T10:39:19.734Z,2147.00
2023-04-20T10:40:17.713Z,2143.00
2023-04-20T10:41:18.774Z,2135.00
2023-04-20T10:42:18.727Z,2128.00
2023-04-20T10:43:18.056Z,2135.00
2023-04-20T10:44:18.818Z,2144.00
2023-04-20T10:45:18.729Z,2149.00
2023-04-20T10:46:18.849Z,2152.00
2023-04-20T10:47:18.830Z,2155.00
2023-04-20T10:48:19.068Z,2158.00
2023-04-20T10:49:19.414Z,2162.00
2023-04-20T10:50:18.129Z,2155.00
2023-04-20T10:51:18.077Z,2156.00
2023-04-20T10:52:19.138Z,2156.00
2023-04-20T10:53:18.199Z,2153.00
2023-04-20T10:54:19.257Z,2147.00
2023-04-20T10:55:19.290Z,2144.00
2023-04-20T10:56:18.340Z,2147.00
2023-04-20T10:57:19.364Z,2144.00
2023-04-20T10:58:19.478Z,2141.00
2023-04-20T10:59:19.771Z,2142.00
2023-04-20T11:00:19.545Z,2140.00
2023-04-20T11:01:19.711Z,2133.00
2023-04-20T11:02:19.833Z,2132.00
2023-04-20T11:03:18.747Z,2127.00
2023-04-20T11:04:19.667Z,2120.00
2023-04-20T11:05:19.824Z,2116.00
2023-04-20T11:06:19.656Z,2114.00
2023-04-20T11:07:19.689Z,2115.00
2023-04-20T11:08:19.679Z,2111.00
2023-04-20T11:09:20.030Z,2105.00
2023-04-20T11:10:18.681Z,2097.00
2023-04-20T11:11:19.052Z,2088.00
2023-04-20T11:12:19.907Z,2084.00
2023-04-20T11:13:19.892Z,2071.00
2023-04-20T11:14:19.864Z,2083.00
2023-04-20T11:15:19.871Z,2085.00
2023-04-20T11:16:19.913Z,2078.00
2023-04-20T11:17:19.052Z,2080.00
2023-04-20T11:18:19.858Z,2085.00
2023-04-20T11:19:19.828Z,2082.00
2023-04-20T11:20:20.036Z,2059.00
2023-04-20T11:21:19.818Z,2056.00
2023-04-20T11:22:19.786Z,2074.00
2023-04-20T11:23:20.640Z,2063.00
2023-04-20T11:24:18.793Z,2066.00
2023-04-20T11:25:19.781Z,2074.00
2023-04-20T11:26:19.816Z,2069.00
2023-04-20T11:27:18.804Z,2090.00
2023-04-20T11:28:19.868Z,2079.00
2023-04-20T11:29:20.157Z,2089.00
2023-04-20T11:30:19.907Z,2116.00
2023-04-20T11:31:19.076Z,2117.00
2023-04-20T11:32:20.115Z,2125.00
2023-04-20T11:33:20.175Z,2139.00
2023-04-20T11:34:20.105Z,2140.00
2023-04-20T11:35:19.009Z,2146.00
2023-04-20T11:36:20.051Z,2155.00
2023-04-20T11:37:20.134Z,2165.00
2023-04-20T11:38:20.594Z,2172.00
2023-04-20T11:39:20.257Z,2182.00
2023-04-20T11:40:19.308Z,2188.00
2023-04-20T11:41:20.356Z,2203.00
2023-04-20T11:42:19.470Z,2238.00
2023-04-20T11:43:19.603Z,2246.00
2023-04-20T11:44:20.412Z,2247.00
2023-04-20T11:45:19.433Z,2246.00
2023-04-20T11:46:20.611Z,2242.00
2023-04-20T11:47:19.561Z,2244.00
2023-04-20T11:48:20.526Z,2241.00
2023-04-20T11:49:20.511Z,2234.00
2023-04-20T11:50:20.545Z,2232.00
2023-04-20T11:51:19.563Z,2243.00
2023-04-20T11:52:20.606Z,2241.00
2023-04-20T11:53:19.583Z,2235.00
2023-04-20T11:54:20.624Z,2230.00
2023-04-20T11:55:19.632Z,2220.00
2023-04-20T11:56:19.634Z,2218.00
2023-04-20T11:57:19.624Z,2216.00
2023-04-20T11:58:20.627Z,2219.00
2023-04-20T11:59:19.956Z,2222.00
2023-04-20T12:00:20.648Z,2223.00
2023-04-20T12:01:19.645Z,2226.00
2023-04-20T12:02:20.698Z,2230.00
2023-04-20T12:03:20.812Z,2230.00
2023-04-20T12:04:21.162Z,2229.00
2023-04-20T12:05:20.697Z,2229.00
2023-04-20T12:06:20.642Z,2228.00
2023-04-20T12:07:19.636Z,2225.00
2023-04-20T12:08:20.664Z,2226.00
2023-04-20T12:09:20.905Z,2225.00
2023-04-20T12:10:20.691Z,2223.00
2023-04-20T12:11:20.765Z,2219.00
2023-04-20T12:12:20.694Z,2218.00
2023-04-20T12:13:20.697Z,2214.00
2023-04-20T12:14:20.713Z,2211.00
2023-04-20T12:15:19.710Z,2211.00
2023-04-20T12:16:20.745Z,2190.00
2023-04-20T12:17:20.745Z,2181.00
2023-04-20T12:18:20.822Z,2139.00